sensor_id;sensor_type;location;lat;lon;timestamp;P1;durP1;ratioP1;P2;durP2;ratioP2
19285;SDS011;9776;50.798;6.430;2023-08-24T00:01:46;6.47;;;2.00;;
19285;SDS011;9776;50.798;6.430;2023-08-24T00:04:13;3.03;;;1.50;;
19285;SDS011;9776;50.798;6.430;2023-08-24T00:06:40;4.03;;;1.75;;
19285;SDS011;9776;50.798;6.430;2023-08-24T00:09:06;2.95;;;1.98;;
19285;SDS011;9776;50.798;6.430;2023-08-24T00:11:33;3.28;;;1.60;;
19285;SDS011;9776;50.798;6.430;2023-08-24T00:14:01;2.35;;;1.50;;
19285;SDS011;9776;50.798;6.430;2023-08-24T00:16:28;2.67;;;1.50;;
19285;SDS011;9776;50.798;6.430;2023-08-24T00:18:55;2.50;;;1.45;;
19285;SDS011;9776;50.798;6.430;2023-08-24T00:21:21;2.95;;;1.52;;
19285;SDS011;9776;50.798;6.430;2023-08-24T00:23:49;2.15;;;1.60;;
19285;SDS011;9776;50.798;6.430;2023-08-24T00:26:15;6.18;;;1.90;;
19285;SDS011;9776;50.798;6.430;2023-08-24T00:28:43;4.47;;;1.50;;
19285;SDS011;9776;50.798;6.430;2023-08-24T00:31:12;3.42;;;1.70;;
19285;SDS011;9776;50.798;6.430;2023-08-24T00:33:39;3.42;;;1.70;;
19285;SDS011;9776;50.798;6.430;2023-08-24T00:36:06;4.05;;;1.75;;
19285;SDS011;9776;50.798;6.430;2023-08-24T00:38:33;2.78;;;2.10;;
19285;SDS011;9776;50.798;6.430;2023-08-24T00:40:59;2.67;;;1.67;;
19285;SDS011;9776;50.798;6.430;2023-08-24T00:43:26;3.47;;;1.85;;
19285;SDS011;9776;50.798;6.430;2023-08-24T00:45:53;3.08;;;1.63;;
19285;SDS011;9776;50.798;6.430;2023-08-24T00:48:23;2.97;;;1.60;;
19285;SDS011;9776;50.798;6.430;2023-08-24T00:50:53;3.90;;;1.55;;
19285;SDS011;9776;50.798;6.430;2023-08-24T00:53:20;4.10;;;2.00;;
19285;SDS011;9776;50.798;6.430;2023-08-24T00:55:50;3.13;;;1.80;;
19285;SDS011;9776;50.798;6.430;2023-08-24T00:58:16;5.60;;;2.08;;
19285;SDS011;9776;50.798;6.430;2023-08-24T01:00:44;5.10;;;2.35;;
19285;SDS011;9776;50.798;6.430;2023-08-24T01:03:10;4.47;;;2.10;;
19285;SDS011;9776;50.798;6.430;2023-08-24T01:05:38;3.60;;;2.05;;
19285;SDS011;9776;50.798;6.430;2023-08-24T01:08:05;4.90;;;1.90;;
19285;SDS011;9776;50.798;6.430;2023-08-24T01:10:34;4.82;;;1.90;;
19285;SDS011;9776;50.798;6.430;2023-08-24T01:13:07;3.35;;;2.00;;
19285;SDS011;9776;50.798;6.430;2023-08-24T01:15:37;3.67;;;2.10;;
19285;SDS011;9776;50.798;6.430;2023-08-24T01:18:10;3.83;;;2.30;;
19285;SDS011;9776;50.798;6.430;2023-08-24T01:20:41;2.92;;;2.00;;
19285;SDS011;9776;50.798;6.430;2023-08-24T01:23:14;3.70;;;2.35;;
19285;SDS011;9776;50.798;6.430;2023-08-24T01:25:51;4.07;;;2.00;;
19285;SDS011;9776;50.798;6.430;2023-08-24T01:28:21;5.80;;;2.33;;
19285;SDS011;9776;50.798;6.430;2023-08-24T01:30:49;3.78;;;2.38;;
19285;SDS011;9776;50.798;6.430;2023-08-24T01:33:15;4.28;;;2.13;;
19285;SDS011;9776;50.798;6.430;2023-08-24T01:35:42;3.63;;;2.30;;
19285;SDS011;9776;50.798;6.430;2023-08-24T01:38:09;5.05;;;2.60;;
19285;SDS011;9776;50.798;6.430;2023-08-24T01:40:39;3.47;;;2.30;;
19285;SDS011;9776;50.798;6.430;2023-08-24T01:43:12;7.05;;;2.80;;
19285;SDS011;9776;50.798;6.430;2023-08-24T01:45:41;3.42;;;2.50;;
19285;SDS011;9776;50.798;6.430;2023-08-24T01:48:09;3.58;;;2.70;;
19285;SDS011;9776;50.798;6.430;2023-08-24T01:50:36;7.07;;;3.00;;
19285;SDS011;9776;50.798;6.430;2023-08-24T01:53:04;3.72;;;2.72;;
19285;SDS011;9776;50.798;6.430;2023-08-24T01:55:30;4.40;;;2.47;;
19285;SDS011;9776;50.798;6.430;2023-08-24T01:57:57;3.53;;;2.40;;
19285;SDS011;9776;50.798;6.430;2023-08-24T02:00:24;4.35;;;2.38;;
19285;SDS011;9776;50.798;6.430;2023-08-24T02:02:52;4.78;;;2.80;;
19285;SDS011;9776;50.798;6.430;2023-08-24T02:05:19;4.22;;;2.80;;
19285;SDS011;9776;50.798;6.430;2023-08-24T02:07:45;5.80;;;2.83;;
19285;SDS011;9776;50.798;6.430;2023-08-24T02:10:12;7.72;;;3.03;;
19285;SDS011;9776;50.798;6.430;2023-08-24T02:12:38;3.80;;;2.65;;
19285;SDS011;9776;50.798;6.430;2023-08-24T02:15:05;3.95;;;2.70;;
19285;SDS011;9776;50.798;6.430;2023-08-24T02:17:32;5.68;;;2.70;;
19285;SDS011;9776;50.798;6.430;2023-08-24T02:20:01;4.55;;;2.88;;
19285;SDS011;9776;50.798;6.430;2023-08-24T02:22:28;4.68;;;2.72;;
19285;SDS011;9776;50.798;6.430;2023-08-24T02:24:55;4.53;;;3.10;;
19285;SDS011;9776;50.798;6.430;2023-08-24T02:27:22;5.47;;;2.80;;
19285;SDS011;9776;50.798;6.430;2023-08-24T02:29:48;5.13;;;2.90;;
19285;SDS011;9776;50.798;6.430;2023-08-24T02:32:15;3.90;;;2.42;;
19285;SDS011;9776;50.798;6.430;2023-08-24T02:34:42;6.32;;;3.00;;
19285;SDS011;9776;50.798;6.430;2023-08-24T02:37:10;3.92;;;2.88;;
19285;SDS011;9776;50.798;6.430;2023-08-24T02:39:36;3.80;;;2.67;;
19285;SDS011;9776;50.798;6.430;2023-08-24T02:42:03;4.40;;;2.38;;
19285;SDS011;9776;50.798;6.430;2023-08-24T02:44:30;5.40;;;2.78;;
19285;SDS011;9776;50.798;6.430;2023-08-24T02:46:57;3.90;;;2.83;;
19285;SDS011;9776;50.798;6.430;2023-08-24T02:49:23;7.22;;;2.90;;
19285;SDS011;9776;50.798;6.430;2023-08-24T02:51:50;4.82;;;2.90;;
19285;SDS011;9776;50.798;6.430;2023-08-24T02:54:18;3.75;;;2.50;;
19285;SDS011;9776;50.798;6.430;2023-08-24T02:56:45;4.43;;;3.05;;
19285;SDS011;9776;50.798;6.430;2023-08-24T02:59:11;4.75;;;3.13;;
19285;SDS011;9776;50.798;6.430;2023-08-24T03:01:38;5.78;;;3.25;;
19285;SDS011;9776;50.798;6.430;2023-08-24T03:04:06;4.15;;;3.03;;
19285;SDS011;9776;50.798;6.430;2023-08-24T03:06:32;5.50;;;3.20;;
19285;SDS011;9776;50.798;6.430;2023-08-24T03:08:59;6.25;;;2.70;;
19285;SDS011;9776;50.798;6.430;2023-08-24T03:11:30;4.47;;;2.80;;
19285;SDS011;9776;50.798;6.430;2023-08-24T03:13:57;4.95;;;3.15;;
19285;SDS011;9776;50.798;6.430;2023-08-24T03:16:23;3.92;;;2.33;;
19285;SDS011;9776;50.798;6.430;2023-08-24T03:18:50;5.43;;;2.83;;
19285;SDS011;9776;50.798;6.430;2023-08-24T03:21:16;3.70;;;2.60;;
19285;SDS011;9776;50.798;6.430;2023-08-24T03:23:43;4.22;;;2.15;;
19285;SDS011;9776;50.798;6.430;2023-08-24T03:26:10;3.83;;;2.40;;
19285;SDS011;9776;50.798;6.430;2023-08-24T03:28:38;5.80;;;2.25;;
19285;SDS011;9776;50.798;6.430;2023-08-24T03:31:06;6.00;;;2.40;;
19285;SDS011;9776;50.798;6.430;2023-08-24T03:33:32;3.55;;;2.38;;
19285;SDS011;9776;50.798;6.430;2023-08-24T03:35:59;3.53;;;2.30;;
19285;SDS011;9776;50.798;6.430;2023-08-24T03:38:27;4.70;;;2.40;;
19285;SDS011;9776;50.798;6.430;2023-08-24T03:40:59;2.97;;;2.33;;
19285;SDS011;9776;50.798;6.430;2023-08-24T03:43:26;3.60;;;2.08;;
19285;SDS011;9776;50.798;6.430;2023-08-24T03:45:54;3.45;;;2.40;;
19285;SDS011;9776;50.798;6.430;2023-08-24T03:48:20;8.00;;;2.60;;
19285;SDS011;9776;50.798;6.430;2023-08-24T03:50:47;4.32;;;2.55;;
19285;SDS011;9776;50.798;6.430;2023-08-24T03:53:13;3.95;;;1.98;;
19285;SDS011;9776;50.798;6.430;2023-08-24T03:55:40;5.20;;;2.30;;
19285;SDS011;9776;50.798;6.430;2023-08-24T03:58:10;5.82;;;2.25;;
19285;SDS011;9776;50.798;6.430;2023-08-24T04:00:37;4.25;;;2.10;;
19285;SDS011;9776;50.798;6.430;2023-08-24T04:03:05;5.30;;;2.30;;
19285;SDS011;9776;50.798;6.430;2023-08-24T04:05:32;4.65;;;2.53;;
19285;SDS011;9776;50.798;6.430;2023-08-24T04:07:58;3.97;;;2.58;;
19285;SDS011;9776;50.798;6.430;2023-08-24T04:10:26;3.17;;;2.50;;
19285;SDS011;9776;50.798;6.430;2023-08-24T04:12:53;4.93;;;2.83;;
19285;SDS011;9776;50.798;6.430;2023-08-24T04:15:19;5.95;;;3.00;;
19285;SDS011;9776;50.798;6.430;2023-08-24T04:17:46;4.30;;;2.90;;
19285;SDS011;9776;50.798;6.430;2023-08-24T04:20:14;8.50;;;3.20;;
19285;SDS011;9776;50.798;6.430;2023-08-24T04:22:41;5.68;;;3.20;;
19285;SDS011;9776;50.798;6.430;2023-08-24T04:25:08;7.53;;;3.83;;
19285;SDS011;9776;50.798;6.430;2023-08-24T04:27:34;8.45;;;3.47;;
19285;SDS011;9776;50.798;6.430;2023-08-24T04:30:03;6.38;;;3.40;;
19285;SDS011;9776;50.798;6.430;2023-08-24T04:32:31;5.72;;;3.75;;
19285;SDS011;9776;50.798;6.430;2023-08-24T04:34:58;5.45;;;3.40;;
19285;SDS011;9776;50.798;6.430;2023-08-24T04:37:26;5.60;;;3.60;;
19285;SDS011;9776;50.798;6.430;2023-08-24T04:39:53;4.82;;;3.40;;
19285;SDS011;9776;50.798;6.430;2023-08-24T04:42:20;4.47;;;3.13;;
19285;SDS011;9776;50.798;6.430;2023-08-24T04:44:47;7.18;;;3.53;;
19285;SDS011;9776;50.798;6.430;2023-08-24T04:47:13;5.43;;;3.17;;
19285;SDS011;9776;50.798;6.430;2023-08-24T04:49:40;4.28;;;2.95;;
19285;SDS011;9776;50.798;6.430;2023-08-24T04:52:06;4.93;;;3.00;;
19285;SDS011;9776;50.798;6.430;2023-08-24T04:54:35;5.75;;;3.20;;
19285;SDS011;9776;50.798;6.430;2023-08-24T04:57:01;4.70;;;3.00;;
19285;SDS011;9776;50.798;6.430;2023-08-24T04:59:28;5.35;;;3.22;;
19285;SDS011;9776;50.798;6.430;2023-08-24T05:01:55;6.88;;;3.30;;
19285;SDS011;9776;50.798;6.430;2023-08-24T05:04:21;6.25;;;3.25;;
19285;SDS011;9776;50.798;6.430;2023-08-24T05:06:48;7.78;;;3.22;;
19285;SDS011;9776;50.798;6.430;2023-08-24T05:09:14;4.75;;;3.08;;
19285;SDS011;9776;50.798;6.430;2023-08-24T05:11:43;4.78;;;3.30;;
19285;SDS011;9776;50.798;6.430;2023-08-24T05:14:10;5.57;;;3.15;;
19285;SDS011;9776;50.798;6.430;2023-08-24T05:16:38;6.78;;;3.50;;
19285;SDS011;9776;50.798;6.430;2023-08-24T05:19:04;5.18;;;3.53;;
19285;SDS011;9776;50.798;6.430;2023-08-24T05:21:31;7.22;;;3.10;;
19285;SDS011;9776;50.798;6.430;2023-08-24T05:23:58;4.85;;;3.00;;
19285;SDS011;9776;50.798;6.430;2023-08-24T05:26:24;5.85;;;3.22;;
19285;SDS011;9776;50.798;6.430;2023-08-24T05:28:53;6.85;;;3.35;;
19285;SDS011;9776;50.798;6.430;2023-08-24T05:31:20;4.70;;;3.17;;
19285;SDS011;9776;50.798;6.430;2023-08-24T05:33:46;4.72;;;3.42;;
19285;SDS011;9776;50.798;6.430;2023-08-24T05:36:13;5.70;;;3.50;;
19285;SDS011;9776;50.798;6.430;2023-08-24T05:38:40;4.45;;;3.03;;
19285;SDS011;9776;50.798;6.430;2023-08-24T05:41:11;6.35;;;3.47;;
19285;SDS011;9776;50.798;6.430;2023-08-24T05:43:37;5.35;;;3.58;;
19285;SDS011;9776;50.798;6.430;2023-08-24T05:46:05;6.35;;;3.58;;
19285;SDS011;9776;50.798;6.430;2023-08-24T05:48:32;4.07;;;3.40;;
19285;SDS011;9776;50.798;6.430;2023-08-24T05:50:59;8.18;;;3.20;;
19285;SDS011;9776;50.798;6.430;2023-08-24T05:53:25;5.20;;;3.40;;
19285;SDS011;9776;50.798;6.430;2023-08-24T05:55:56;4.95;;;3.30;;
19285;SDS011;9776;50.798;6.430;2023-08-24T05:58:23;5.32;;;3.10;;
19285;SDS011;9776;50.798;6.430;2023-08-24T06:00:55;4.70;;;3.30;;
19285;SDS011;9776;50.798;6.430;2023-08-24T06:03:23;5.70;;;3.40;;
19285;SDS011;9776;50.798;6.430;2023-08-24T06:05:50;4.80;;;3.58;;
19285;SDS011;9776;50.798;6.430;2023-08-24T06:08:17;6.25;;;3.47;;
19285;SDS011;9776;50.798;6.430;2023-08-24T06:10:43;5.38;;;3.58;;
19285;SDS011;9776;50.798;6.430;2023-08-24T06:13:10;5.68;;;3.30;;
19285;SDS011;9776;50.798;6.430;2023-08-24T06:15:37;5.28;;;3.22;;
19285;SDS011;9776;50.798;6.430;2023-08-24T06:18:03;6.10;;;3.22;;
19285;SDS011;9776;50.798;6.430;2023-08-24T06:20:31;5.63;;;3.20;;
19285;SDS011;9776;50.798;6.430;2023-08-24T06:22:58;4.68;;;3.05;;
19285;SDS011;9776;50.798;6.430;2023-08-24T06:25:25;5.30;;;2.85;;
19285;SDS011;9776;50.798;6.430;2023-08-24T06:27:51;4.25;;;2.70;;
19285;SDS011;9776;50.798;6.430;2023-08-24T06:30:18;3.92;;;2.88;;
19285;SDS011;9776;50.798;6.430;2023-08-24T06:32:45;4.72;;;2.55;;
19285;SDS011;9776;50.798;6.430;2023-08-24T06:35:11;3.17;;;2.45;;
19285;SDS011;9776;50.798;6.430;2023-08-24T06:37:41;4.88;;;2.80;;
19285;SDS011;9776;50.798;6.430;2023-08-24T06:40:08;4.75;;;2.08;;
19285;SDS011;9776;50.798;6.430;2023-08-24T06:42:37;4.75;;;2.50;;
19285;SDS011;9776;50.798;6.430;2023-08-24T06:45:04;4.32;;;2.58;;
19285;SDS011;9776;50.798;6.430;2023-08-24T06:47:31;3.50;;;2.28;;
19285;SDS011;9776;50.798;6.430;2023-08-24T06:49:58;5.20;;;2.17;;
19285;SDS011;9776;50.798;6.430;2023-08-24T06:52:25;4.07;;;2.20;;
19285;SDS011;9776;50.798;6.430;2023-08-24T06:54:53;3.25;;;2.30;;
19285;SDS011;9776;50.798;6.430;2023-08-24T06:57:21;2.88;;;2.03;;
19285;SDS011;9776;50.798;6.430;2023-08-24T06:59:48;4.00;;;2.35;;
19285;SDS011;9776;50.798;6.430;2023-08-24T07:02:14;4.32;;;2.42;;
19285;SDS011;9776;50.798;6.430;2023-08-24T07:04:43;4.70;;;2.10;;
19285;SDS011;9776;50.798;6.430;2023-08-24T07:07:09;3.92;;;2.25;;
19285;SDS011;9776;50.798;6.430;2023-08-24T07:09:36;2.90;;;2.13;;
19285;SDS011;9776;50.798;6.430;2023-08-24T07:12:05;4.90;;;1.90;;
19285;SDS011;9776;50.798;6.430;2023-08-24T07:14:35;3.50;;;2.28;;
19285;SDS011;9776;50.798;6.430;2023-08-24T07:17:01;4.55;;;2.00;;
19285;SDS011;9776;50.798;6.430;2023-08-24T07:19:28;3.92;;;2.00;;
19285;SDS011;9776;50.798;6.430;2023-08-24T07:21:55;3.50;;;2.15;;
19285;SDS011;9776;50.798;6.430;2023-08-24T07:24:21;2.90;;;2.10;;
19285;SDS011;9776;50.798;6.430;2023-08-24T07:26:51;3.60;;;1.75;;
19285;SDS011;9776;50.798;6.430;2023-08-24T07:29:19;5.43;;;2.17;;
19285;SDS011;9776;50.798;6.430;2023-08-24T07:31:46;9.80;;;2.00;;
19285;SDS011;9776;50.798;6.430;2023-08-24T07:34:13;2.72;;;1.75;;
19285;SDS011;9776;50.798;6.430;2023-08-24T07:36:40;4.40;;;2.10;;
19285;SDS011;9776;50.798;6.430;2023-08-24T07:39:07;5.88;;;1.90;;
19285;SDS011;9776;50.798;6.430;2023-08-24T07:41:34;6.60;;;1.90;;
19285;SDS011;9776;50.798;6.430;2023-08-24T07:44:00;3.92;;;1.85;;
19285;SDS011;9776;50.798;6.430;2023-08-24T07:46:28;3.97;;;2.05;;
19285;SDS011;9776;50.798;6.430;2023-08-24T07:48:55;3.60;;;1.67;;
19285;SDS011;9776;50.798;6.430;2023-08-24T07:51:22;4.40;;;1.77;;
19285;SDS011;9776;50.798;6.430;2023-08-24T07:53:48;3.90;;;1.80;;
19285;SDS011;9776;50.798;6.430;2023-08-24T07:56:17;3.65;;;1.75;;
19285;SDS011;9776;50.798;6.430;2023-08-24T07:58:44;3.60;;;1.63;;
19285;SDS011;9776;50.798;6.430;2023-08-24T08:01:11;4.38;;;1.80;;
19285;SDS011;9776;50.798;6.430;2023-08-24T08:03:39;2.58;;;1.60;;
19285;SDS011;9776;50.798;6.430;2023-08-24T08:06:05;2.30;;;1.60;;
19285;SDS011;9776;50.798;6.430;2023-08-24T08:08:32;3.05;;;1.65;;
19285;SDS011;9776;50.798;6.430;2023-08-24T08:10:59;3.47;;;1.88;;
19285;SDS011;9776;50.798;6.430;2023-08-24T08:13:27;3.40;;;1.52;;
19285;SDS011;9776;50.798;6.430;2023-08-24T08:15:59;1.90;;;1.40;;
19285;SDS011;9776;50.798;6.430;2023-08-24T08:18:28;2.53;;;1.67;;
19285;SDS011;9776;50.798;6.430;2023-08-24T08:20:56;4.38;;;1.60;;
19285;SDS011;9776;50.798;6.430;2023-08-24T08:23:22;3.97;;;1.70;;
19285;SDS011;9776;50.798;6.430;2023-08-24T08:25:49;5.15;;;1.73;;
19285;SDS011;9776;50.798;6.430;2023-08-24T08:28:16;2.97;;;1.42;;
19285;SDS011;9776;50.798;6.430;2023-08-24T08:30:43;3.03;;;1.67;;
19285;SDS011;9776;50.798;6.430;2023-08-24T08:33:10;4.07;;;1.63;;
19285;SDS011;9776;50.798;6.430;2023-08-24T08:35:37;2.42;;;1.70;;
19285;SDS011;9776;50.798;6.430;2023-08-24T08:38:06;3.13;;;1.52;;
19285;SDS011;9776;50.798;6.430;2023-08-24T08:40:33;3.05;;;1.40;;
19285;SDS011;9776;50.798;6.430;2023-08-24T08:43:03;3.63;;;1.60;;
19285;SDS011;9776;50.798;6.430;2023-08-24T08:45:31;4.00;;;1.55;;
19285;SDS011;9776;50.798;6.430;2023-08-24T08:47:59;2.95;;;1.38;;
19285;SDS011;9776;50.798;6.430;2023-08-24T08:50:26;3.95;;;1.48;;
19285;SDS011;9776;50.798;6.430;2023-08-24T08:52:54;2.90;;;1.40;;
19285;SDS011;9776;50.798;6.430;2023-08-24T08:55:22;2.58;;;1.48;;
19285;SDS011;9776;50.798;6.430;2023-08-24T08:57:48;3.47;;;1.42;;
19285;SDS011;9776;50.798;6.430;2023-08-24T09:00:17;4.13;;;1.70;;
19285;SDS011;9776;50.798;6.430;2023-08-24T09:02:44;2.90;;;1.50;;
19285;SDS011;9776;50.798;6.430;2023-08-24T09:05:14;3.55;;;1.60;;
19285;SDS011;9776;50.798;6.430;2023-08-24T09:07:41;3.15;;;1.70;;
19285;SDS011;9776;50.798;6.430;2023-08-24T09:10:11;5.38;;;1.80;;
19285;SDS011;9776;50.798;6.430;2023-08-24T09:12:39;4.30;;;1.33;;
19285;SDS011;9776;50.798;6.430;2023-08-24T09:15:06;3.28;;;1.27;;
19285;SDS011;9776;50.798;6.430;2023-08-24T09:17:33;3.03;;;1.50;;
19285;SDS011;9776;50.798;6.430;2023-08-24T09:20:00;6.00;;;1.27;;
19285;SDS011;9776;50.798;6.430;2023-08-24T09:22:34;4.13;;;1.40;;
19285;SDS011;9776;50.798;6.430;2023-08-24T09:25:01;2.22;;;1.42;;
19285;SDS011;9776;50.798;6.430;2023-08-24T09:27:31;2.83;;;1.40;;
19285;SDS011;9776;50.798;6.430;2023-08-24T09:29:59;2.92;;;1.50;;
19285;SDS011;9776;50.798;6.430;2023-08-24T09:32:27;5.63;;;1.48;;
19285;SDS011;9776;50.798;6.430;2023-08-24T09:34:54;3.30;;;1.35;;
19285;SDS011;9776;50.798;6.430;2023-08-24T09:37:21;3.63;;;1.55;;
19285;SDS011;9776;50.798;6.430;2023-08-24T09:39:48;3.63;;;1.30;;
19285;SDS011;9776;50.798;6.430;2023-08-24T09:42:14;2.25;;;1.35;;
19285;SDS011;9776;50.798;6.430;2023-08-24T09:44:50;3.42;;;1.48;;
19285;SDS011;9776;50.798;6.430;2023-08-24T09:47:18;2.53;;;1.30;;
19285;SDS011;9776;50.798;6.430;2023-08-24T09:49:45;2.90;;;1.40;;
19285;SDS011;9776;50.798;6.430;2023-08-24T09:52:13;3.90;;;1.40;;
19285;SDS011;9776;50.798;6.430;2023-08-24T09:54:40;4.45;;;1.50;;
19285;SDS011;9776;50.798;6.430;2023-08-24T09:57:10;6.20;;;1.42;;
19285;SDS011;9776;50.798;6.430;2023-08-24T09:59:37;4.60;;;1.70;;
19285;SDS011;9776;50.798;6.430;2023-08-24T10:02:07;3.08;;;1.35;;
19285;SDS011;9776;50.798;6.430;2023-08-24T10:04:42;3.50;;;1.60;;
19285;SDS011;9776;50.798;6.430;2023-08-24T10:07:11;6.93;;;1.50;;
19285;SDS011;9776;50.798;6.430;2023-08-24T10:09:47;3.88;;;1.60;;
19285;SDS011;9776;50.798;6.430;2023-08-24T10:12:23;2.85;;;1.20;;
19285;SDS011;9776;50.798;6.430;2023-08-24T10:14:53;3.25;;;1.42;;
19285;SDS011;9776;50.798;6.430;2023-08-24T10:17:25;3.03;;;1.38;;
19285;SDS011;9776;50.798;6.430;2023-08-24T10:19:54;7.07;;;1.58;;
19285;SDS011;9776;50.798;6.430;2023-08-24T10:22:23;4.90;;;1.48;;
19285;SDS011;9776;50.798;6.430;2023-08-24T10:24:49;4.57;;;1.50;;
19285;SDS011;9776;50.798;6.430;2023-08-24T10:27:20;4.97;;;1.50;;
19285;SDS011;9776;50.798;6.430;2023-08-24T10:29:48;3.53;;;1.30;;
19285;SDS011;9776;50.798;6.430;2023-08-24T10:32:15;2.83;;;1.20;;
19285;SDS011;9776;50.798;6.430;2023-08-24T10:34:42;4.78;;;1.48;;
19285;SDS011;9776;50.798;6.430;2023-08-24T10:37:11;3.75;;;1.65;;
19285;SDS011;9776;50.798;6.430;2023-08-24T10:39:43;6.28;;;1.77;;
19285;SDS011;9776;50.798;6.430;2023-08-24T10:42:11;3.80;;;1.50;;
19285;SDS011;9776;50.798;6.430;2023-08-24T10:44:43;4.22;;;1.60;;
19285;SDS011;9776;50.798;6.430;2023-08-24T10:47:11;5.55;;;1.58;;
19285;SDS011;9776;50.798;6.430;2023-08-24T10:49:39;2.90;;;1.60;;
19285;SDS011;9776;50.798;6.430;2023-08-24T10:52:21;7.72;;;1.58;;
19285;SDS011;9776;50.798;6.430;2023-08-24T10:54:49;3.85;;;1.30;;
19285;SDS011;9776;50.798;6.430;2023-08-24T10:57:19;3.45;;;1.42;;
19285;SDS011;9776;50.798;6.430;2023-08-24T10:59:57;4.75;;;1.42;;
19285;SDS011;9776;50.798;6.430;2023-08-24T11:02:25;2.50;;;1.30;;
19285;SDS011;9776;50.798;6.430;2023-08-24T11:05:14;4.45;;;1.60;;
19285;SDS011;9776;50.798;6.430;2023-08-24T11:07:54;3.75;;;1.40;;
19285;SDS011;9776;50.798;6.430;2023-08-24T11:10:22;3.92;;;1.58;;
19285;SDS011;9776;50.798;6.430;2023-08-24T11:13:05;4.22;;;1.80;;
19285;SDS011;9776;50.798;6.430;2023-08-24T11:15:37;4.35;;;1.63;;
19285;SDS011;9776;50.798;6.430;2023-08-24T11:18:11;3.95;;;1.77;;
19285;SDS011;9776;50.798;6.430;2023-08-24T11:20:39;2.65;;;1.45;;
19285;SDS011;9776;50.798;6.430;2023-08-24T11:23:10;4.35;;;1.55;;
19285;SDS011;9776;50.798;6.430;2023-08-24T11:25:37;4.20;;;1.60;;
19285;SDS011;9776;50.798;6.430;2023-08-24T11:28:04;5.28;;;1.60;;
19285;SDS011;9776;50.798;6.430;2023-08-24T11:30:31;4.55;;;1.67;;
19285;SDS011;9776;50.798;6.430;2023-08-24T11:32:59;5.20;;;1.60;;
19285;SDS011;9776;50.798;6.430;2023-08-24T11:35:25;4.50;;;1.80;;
19285;SDS011;9776;50.798;6.430;2023-08-24T11:37:52;6.30;;;2.13;;
19285;SDS011;9776;50.798;6.430;2023-08-24T11:40:20;5.65;;;2.53;;
19285;SDS011;9776;50.798;6.430;2023-08-24T11:42:53;5.95;;;2.47;;
19285;SDS011;9776;50.798;6.430;2023-08-24T11:45:20;7.28;;;2.30;;
19285;SDS011;9776;50.798;6.430;2023-08-24T11:47:47;4.93;;;2.35;;
19285;SDS011;9776;50.798;6.430;2023-08-24T11:50:13;7.10;;;2.60;;
19285;SDS011;9776;50.798;6.430;2023-08-24T11:52:40;6.50;;;2.53;;
19285;SDS011;9776;50.798;6.430;2023-08-24T11:55:07;15.30;;;2.90;;
19285;SDS011;9776;50.798;6.430;2023-08-24T11:57:36;9.20;;;2.97;;
19285;SDS011;9776;50.798;6.430;2023-08-24T12:00:04;6.53;;;2.50;;
19285;SDS011;9776;50.798;6.430;2023-08-24T12:02:32;4.95;;;2.38;;
19285;SDS011;9776;50.798;6.430;2023-08-24T12:04:59;5.78;;;2.40;;
19285;SDS011;9776;50.798;6.430;2023-08-24T12:07:26;6.88;;;2.60;;
19285;SDS011;9776;50.798;6.430;2023-08-24T12:09:53;4.45;;;2.20;;
19285;SDS011;9776;50.798;6.430;2023-08-24T12:12:21;6.32;;;2.47;;
19285;SDS011;9776;50.798;6.430;2023-08-24T12:14:50;8.55;;;2.60;;
19285;SDS011;9776;50.798;6.430;2023-08-24T12:17:16;6.68;;;2.65;;
19285;SDS011;9776;50.798;6.430;2023-08-24T12:19:44;4.38;;;2.30;;
19285;SDS011;9776;50.798;6.430;2023-08-24T12:22:14;5.55;;;2.38;;
19285;SDS011;9776;50.798;6.430;2023-08-24T12:24:43;3.80;;;2.00;;
19285;SDS011;9776;50.798;6.430;2023-08-24T12:27:17;6.93;;;2.30;;
19285;SDS011;9776;50.798;6.430;2023-08-24T12:29:44;4.32;;;2.10;;
19285;SDS011;9776;50.798;6.430;2023-08-24T12:32:13;3.38;;;1.90;;
19285;SDS011;9776;50.798;6.430;2023-08-24T12:34:41;3.17;;;1.92;;
19285;SDS011;9776;50.798;6.430;2023-08-24T12:37:08;5.05;;;1.92;;
19285;SDS011;9776;50.798;6.430;2023-08-24T12:39:34;5.40;;;1.90;;
19285;SDS011;9776;50.798;6.430;2023-08-24T12:42:01;4.25;;;1.98;;
19285;SDS011;9776;50.798;6.430;2023-08-24T12:44:28;4.47;;;1.90;;
19285;SDS011;9776;50.798;6.430;2023-08-24T12:46:54;2.88;;;1.90;;
19285;SDS011;9776;50.798;6.430;2023-08-24T12:49:22;3.50;;;1.85;;
19285;SDS011;9776;50.798;6.430;2023-08-24T12:51:49;5.03;;;1.65;;
19285;SDS011;9776;50.798;6.430;2023-08-24T12:54:16;3.53;;;1.80;;
19285;SDS011;9776;50.798;6.430;2023-08-24T12:56:42;2.78;;;1.77;;
19285;SDS011;9776;50.798;6.430;2023-08-24T12:59:09;3.72;;;2.05;;
19285;SDS011;9776;50.798;6.430;2023-08-24T13:01:36;4.53;;;1.60;;
19285;SDS011;9776;50.798;6.430;2023-08-24T13:04:03;3.50;;;1.63;;
19285;SDS011;9776;50.798;6.430;2023-08-24T13:06:32;3.42;;;1.98;;
19285;SDS011;9776;50.798;6.430;2023-08-24T13:08:58;3.85;;;1.50;;
19285;SDS011;9776;50.798;6.430;2023-08-24T13:11:25;3.63;;;1.58;;
19285;SDS011;9776;50.798;6.430;2023-08-24T13:13:52;3.08;;;1.45;;
19285;SDS011;9776;50.798;6.430;2023-08-24T13:16:19;3.10;;;1.60;;
19285;SDS011;9776;50.798;6.430;2023-08-24T13:18:45;2.40;;;1.77;;
19285;SDS011;9776;50.798;6.430;2023-08-24T13:21:12;4.50;;;1.60;;
19285;SDS011;9776;50.798;6.430;2023-08-24T13:23:52;2.78;;;1.60;;
19285;SDS011;9776;50.798;6.430;2023-08-24T13:26:37;4.20;;;1.73;;
19285;SDS011;9776;50.798;6.430;2023-08-24T13:29:04;2.72;;;1.20;;
19285;SDS011;9776;50.798;6.430;2023-08-24T13:31:30;4.30;;;1.60;;
19285;SDS011;9776;50.798;6.430;2023-08-24T13:33:57;2.90;;;1.30;;
19285;SDS011;9776;50.798;6.430;2023-08-24T13:36:24;3.70;;;1.70;;
19285;SDS011;9776;50.798;6.430;2023-08-24T13:38:52;3.50;;;1.50;;
19285;SDS011;9776;50.798;6.430;2023-08-24T13:41:18;4.70;;;1.70;;
19285;SDS011;9776;50.798;6.430;2023-08-24T13:43:45;4.45;;;1.55;;
19285;SDS011;9776;50.798;6.430;2023-08-24T13:46:12;4.50;;;1.73;;
19285;SDS011;9776;50.798;6.430;2023-08-24T13:48:38;3.53;;;1.60;;
19285;SDS011;9776;50.798;6.430;2023-08-24T13:51:05;5.22;;;1.63;;
19285;SDS011;9776;50.798;6.430;2023-08-24T13:53:33;3.92;;;1.67;;
19285;SDS011;9776;50.798;6.430;2023-08-24T13:56:01;7.00;;;2.00;;
19285;SDS011;9776;50.798;6.430;2023-08-24T13:58:27;7.13;;;2.05;;
19285;SDS011;9776;50.798;6.430;2023-08-24T14:00:54;4.20;;;2.10;;
19285;SDS011;9776;50.798;6.430;2023-08-24T14:03:21;5.30;;;1.95;;
19285;SDS011;9776;50.798;6.430;2023-08-24T14:05:48;6.28;;;1.88;;
19285;SDS011;9776;50.798;6.430;2023-08-24T14:08:16;4.68;;;2.00;;
19285;SDS011;9776;50.798;6.430;2023-08-24T14:10:43;5.22;;;1.85;;
19285;SDS011;9776;50.798;6.430;2023-08-24T14:13:11;5.30;;;1.70;;
19285;SDS011;9776;50.798;6.430;2023-08-24T14:15:37;5.53;;;1.58;;
19285;SDS011;9776;50.798;6.430;2023-08-24T14:18:04;8.30;;;1.73;;
19285;SDS011;9776;50.798;6.430;2023-08-24T14:20:31;8.13;;;2.30;;
19285;SDS011;9776;50.798;6.430;2023-08-24T14:22:57;4.68;;;1.80;;
19285;SDS011;9776;50.798;6.430;2023-08-24T14:26:09;5.60;;;1.80;;
19285;SDS011;9776;50.798;6.430;2023-08-24T14:28:49;4.32;;;1.40;;
19285;SDS011;9776;50.798;6.430;2023-08-24T14:31:16;3.65;;;1.40;;
19285;SDS011;9776;50.798;6.430;2023-08-24T14:33:43;4.43;;;1.58;;
19285;SDS011;9776;50.798;6.430;2023-08-24T14:36:10;4.38;;;1.08;;
19285;SDS011;9776;50.798;6.430;2023-08-24T14:38:38;2.33;;;1.10;;
19285;SDS011;9776;50.798;6.430;2023-08-24T14:41:05;3.80;;;1.75;;
19285;SDS011;9776;50.798;6.430;2023-08-24T14:43:32;5.82;;;1.00;;
19285;SDS011;9776;50.798;6.430;2023-08-24T14:46:00;2.13;;;0.90;;
19285;SDS011;9776;50.798;6.430;2023-08-24T14:48:27;3.20;;;0.90;;
19285;SDS011;9776;50.798;6.430;2023-08-24T14:50:53;4.55;;;0.90;;
19285;SDS011;9776;50.798;6.430;2023-08-24T14:53:20;2.63;;;0.82;;
19285;SDS011;9776;50.798;6.430;2023-08-24T14:55:47;2.83;;;0.70;;
19285;SDS011;9776;50.798;6.430;2023-08-24T14:58:13;2.15;;;0.65;;
19285;SDS011;9776;50.798;6.430;2023-08-24T15:00:40;2.42;;;0.80;;
19285;SDS011;9776;50.798;6.430;2023-08-24T15:03:12;2.92;;;0.60;;
19285;SDS011;9776;50.798;6.430;2023-08-24T15:05:41;3.00;;;0.70;;